Time;durP1;ratioP1;P1;durP2;ratioP2;P2;SDS_P1;SDS_P2;PMS_P1;PMS_P2;Temp;Humidity;BMP_temperature;BMP_pressure;BME280_temperature;BME280_humidity;BME280_pressure;Samples;Min_cycle;Max_cycle;Signal;HPM_P1;HPM_P2
2023/09/12 00:00:24;;;;;;;0.20;0.20;;;;;;;17.97;60.03;101261.91;5036041;28;20021;-88
2023/09/12 00:02:49;;;;;;;0.10;0.10;;;;;;;18.05;59.59;101251.75;5019415;28;20033;-89
2023/09/12 00:05:15;;;;;;;0.15;0.15;;;;;;;17.89;59.96;101246.75;5019206;28;20030;-88
2023/09/12 00:07:40;;;;;;;0.10;0.10;;;;;;;18.05;60.03;101268.28;5035583;28;20029;-90
2023/09/12 00:10:06;;;;;;;0.10;0.10;;;;;;;17.97;59.60;101249.66;5019302;28;20025;-89
2023/09/12 00:12:31;;;;;;;0.10;0.10;;;;;;;18.01;59.75;101266.00;5019312;28;20022;-89
2023/09/12 00:14:57;;;;;;;0.10;0.10;;;;;;;18.06;59.54;101261.28;5019014;28;20045;-88
2023/09/12 00:17:23;;;;;;;0.20;0.20;;;;;;;18.01;59.47;101261.59;5002780;28;20099;-88
2023/09/12 00:19:48;;;;;;;0.20;0.20;;;;;;;17.97;59.61;101268.00;5035614;28;20072;-88
2023/09/12 00:22:14;;;;;;;0.15;0.15;;;;;;;17.92;59.42;101262.25;5035241;28;20033;-88
2023/09/12 00:24:39;;;;;;;0.20;0.20;;;;;;;17.75;59.50;101249.50;5036719;28;20140;-90
2023/09/12 00:27:05;;;;;;;0.10;0.10;;;;;;;17.86;59.08;101249.56;5036785;28;20029;-89
2023/09/12 00:29:31;;;;;;;0.10;0.10;;;;;;;17.64;59.01;101237.13;5035750;28;20434;-88
2023/09/12 00:31:56;;;;;;;0.10;0.10;;;;;;;17.98;58.77;101279.28;5036929;28;20033;-90
2023/09/12 00:34:22;;;;;;;0.15;0.15;;;;;;;17.83;58.59;101247.19;5018968;28;20030;-89
2023/09/12 00:36:47;;;;;;;0.10;0.10;;;;;;;17.94;58.37;101259.53;5035249;28;20036;-89
2023/09/12 00:39:12;;;;;;;0.10;0.10;;;;;;;17.86;58.56;101267.91;5034887;28;20025;-88
2023/09/12 00:41:38;;;;;;;0.20;0.20;;;;;;;17.83;59.07;101268.13;5031473;28;20087;-88
2023/09/12 00:44:03;;;;;;;0.20;0.20;;;;;;;17.82;58.95;101276.09;5032277;28;20488;-87
2023/09/12 00:46:29;;;;;;;0.20;0.20;;;;;;;17.74;59.13;101274.00;5015933;28;20100;-89
2023/09/12 00:48:55;;;;;;;0.20;0.20;;;;;;;17.75;59.31;101270.44;5032505;28;20079;-89
2023/09/12 00:51:20;;;;;;;0.20;0.20;;;;;;;17.86;59.19;101281.00;5032099;28;20503;-89
2023/09/12 00:53:46;;;;;;;0.10;0.10;;;;;;;17.75;58.88;101265.19;5015632;28;20048;-88
2023/09/12 00:56:12;;;;;;;0.10;0.10;;;;;;;17.87;59.04;101281.81;5015622;28;20042;-89
2023/09/12 00:58:37;;;;;;;0.10;0.10;;;;;;;17.72;59.16;101274.09;5032005;28;20487;-87
2023/09/12 01:01:04;;;;;;;0.20;0.20;;;;;;;17.67;59.25;101285.78;5031790;28;20392;-89
2023/09/12 01:03:29;;;;;;;0.10;0.10;;;;;;;17.69;59.45;101287.38;5032114;28;20112;-89
2023/09/12 01:05:55;;;;;;;0.10;0.10;;;;;;;17.54;59.14;101256.16;5031849;28;20115;-89
2023/09/12 01:08:20;;;;;;;0.10;0.10;;;;;;;17.72;58.87;101291.56;5015492;28;20110;-89
2023/09/12 01:10:46;;;;;;;0.10;0.10;;;;;;;17.53;59.07;101257.13;5015166;28;20044;-88
2023/09/12 01:13:13;;;;;;;0.20;0.20;;;;;;;17.71;58.89;101282.06;5015509;28;20513;-89
2023/09/12 01:15:41;;;;;;;0.10;0.10;;;;;;;17.62;59.17;101280.88;5015238;28;20490;-89
2023/09/12 01:18:06;;;;;;;0.20;0.20;;;;;;;17.57;59.94;101289.97;5015118;28;20038;-89
2023/09/12 01:20:33;;;;;;;0.10;0.10;;;;;;;17.40;59.76;101281.50;5015241;28;20103;-88
2023/09/12 01:22:58;;;;;;;0.10;0.10;;;;;;;17.29;60.27;101289.19;5031712;28;20030;-88
2023/09/12 01:25:35;;;;;;;0.20;0.20;;;;;;;17.08;60.51;101259.25;5033032;28;20108;-88
2023/09/12 01:28:02;;;;;;;0.10;0.10;;;;;;;17.20;60.62;101293.25;5015165;28;20033;-88
2023/09/12 01:30:28;;;;;;;0.20;0.20;;;;;;;17.19;60.81;101285.50;4998811;28;20034;-90
2023/09/12 01:32:53;;;;;;;0.10;0.10;;;;;;;17.18;60.87;101283.84;5014580;28;20338;-89
2023/09/12 01:35:19;;;;;;;0.10;0.10;;;;;;;17.17;60.90;101292.63;5014934;28;20033;-88
2023/09/12 01:37:44;;;;;;;0.10;0.10;;;;;;;17.06;61.21;101287.25;5031496;28;20442;-88
2023/09/12 01:40:11;;;;;;;0.10;0.10;;;;;;;16.96;61.49;101288.81;5031381;28;20488;-88
2023/09/12 01:42:37;;;;;;;0.20;0.20;;;;;;;16.75;61.88;101273.56;5015045;28;20026;-88
2023/09/12 01:45:03;;;;;;;0.20;0.20;;;;;;;16.75;61.94;101286.63;5031290;28;20072;-89
2023/09/12 01:47:29;;;;;;;0.10;0.10;;;;;;;16.53;62.24;101247.97;5031032;28;20030;-89
2023/09/12 01:49:56;;;;;;;0.20;0.20;;;;;;;16.83;61.86;101286.16;5030888;28;20490;-89
2023/09/12 01:52:21;;;;;;;0.10;0.10;;;;;;;16.82;61.75;101284.47;5031045;28;20119;-88
2023/09/12 01:54:47;;;;;;;0.20;0.20;;;;;;;16.86;61.22;101276.34;5014683;28;20025;-87
2023/09/12 01:57:13;;;;;;;0.20;0.20;;;;;;;16.89;61.10;101280.50;5014731;28;20038;-88
2023/09/12 01:59:39;;;;;;;0.20;0.20;;;;;;;16.75;61.92;101273.56;5014290;28;20417;-89
2023/09/12 02:02:04;;;;;;;0.20;0.20;;;;;;;16.78;61.75;101278.59;5030802;28;20041;-88
2023/09/12 02:04:30;;;;;;;0.20;0.20;;;;;;;16.73;62.08;101280.69;5032449;28;20030;-89
2023/09/12 02:06:55;;;;;;;0.10;0.10;;;;;;;16.77;62.06;101289.97;5030805;28;20036;-89
2023/09/12 02:09:20;;;;;;;0.10;0.10;;;;;;;16.59;62.61;101276.28;5014428;28;20025;-89
2023/09/12 02:11:47;;;;;;;0.20;0.20;;;;;;;16.66;62.21;101292.41;5014411;28;20025;-88
2023/09/12 02:14:12;;;;;;;0.10;0.10;;;;;;;16.66;62.50;101287.19;5013967;28;20026;-87
2023/09/12 02:16:38;;;;;;;0.20;0.20;;;;;;;16.71;62.32;101297.38;5030383;28;20029;-88
2023/09/12 02:19:04;;;;;;;0.20;0.20;;;;;;;16.78;62.44;101294.28;5030839;28;20029;-89
2023/09/12 02:21:30;;;;;;;0.20;0.20;;;;;;;16.83;61.86;101292.22;5030340;28;20505;-88
2023/09/12 02:23:55;;;;;;;0.20;0.20;;;;;;;16.85;61.81;101298.19;5029947;28;20041;-89
2023/09/12 02:26:21;;;;;;;0.20;0.20;;;;;;;16.74;61.69;101284.13;5013774;28;20025;-88
2023/09/12 02:28:46;;;;;;;0.20;0.20;;;;;;;16.69;61.90;101283.56;5030169;28;20483;-87
2023/09/12 02:31:12;;;;;;;0.20;0.20;;;;;;;16.80;61.63;101292.38;5030101;28;20033;-89
2023/09/12 02:33:38;;;;;;;0.10;0.10;;;;;;;16.81;61.56;101288.88;5013944;28;20434;-89
2023/09/12 02:36:04;;;;;;;0.17;0.17;;;;;;;16.74;61.99;101284.97;5030148;28;20021;-89
2023/09/12 02:38:29;;;;;;;0.10;0.10;;;;;;;16.75;61.73;101289.25;5030195;28;20087;-88
2023/09/12 02:40:55;;;;;;;0.20;0.20;;;;;;;16.74;61.88;101287.59;5013723;28;20435;-89
2023/09/12 02:43:21;;;;;;;0.20;0.20;;;;;;;16.65;61.59;101277.69;5031379;28;20116;-88
2023/09/12 02:45:46;;;;;;;0.10;0.10;;;;;;;16.77;61.66;101297.81;5030055;28;20064;-88
2023/09/12 02:48:12;;;;;;;0.20;0.20;;;;;;;16.83;61.71;101299.22;5030040;28;20022;-88
2023/09/12 02:50:37;;;;;;;0.10;0.10;;;;;;;16.74;61.76;101287.59;5013627;28;20037;-88
2023/09/12 02:53:03;;;;;;;0.10;0.10;;;;;;;16.65;62.34;101288.13;5029974;28;20040;-87
2023/09/12 02:55:28;;;;;;;0.10;0.10;;;;;;;16.72;61.70;101294.69;5030027;28;20025;-89
2023/09/12 02:57:54;;;;;;;0.10;0.10;;;;;;;16.73;62.00;101296.34;5013386;28;20034;-89
2023/09/12 03:00:19;;;;;;;0.20;0.20;;;;;;;16.67;62.20;101298.47;5013337;28;20091;-89
2023/09/12 03:02:45;;;;;;;0.10;0.10;;;;;;;16.59;62.36;101283.28;5013144;28;20026;-88
2023/09/12 03:05:10;;;;;;;0.10;0.10;;;;;;;16.54;62.84;101282.75;5029855;28;20021;-88
2023/09/12 03:07:36;;;;;;;0.20;0.20;;;;;;;16.49;63.22;101282.19;5029895;28;20475;-88
2023/09/12 03:10:01;;;;;;;0.10;0.10;;;;;;;16.50;62.92;101289.94;5029751;28;20057;-90
2023/09/12 03:12:27;;;;;;;0.10;0.10;;;;;;;16.51;63.18;101293.38;5029509;28;20479;-88
2023/09/12 03:14:52;;;;;;;0.20;0.20;;;;;;;16.35;63.46;101278.69;5012791;28;20061;-88
2023/09/12 03:17:18;;;;;;;0.10;0.10;;;;;;;16.48;63.05;101299.63;5013086;28;20033;-88
2023/09/12 03:19:43;;;;;;;0.10;0.10;;;;;;;16.43;63.29;101295.66;5013116;28;20033;-88
2023/09/12 03:22:09;;;;;;;0.10;0.10;;;;;;;16.91;64.17;101295.19;5013218;28;20032;-87
2023/09/12 03:24:34;;;;;;;0.10;0.10;;;;;;;17.22;61.77;101277.47;5029715;28;20057;-87
2023/09/12 03:27:00;;;;;;;0.20;0.20;;;;;;;17.85;59.55;101295.03;5029909;28;20080;-85
2023/09/12 03:29:25;;;;;;;0.10;0.10;;;;;;;17.92;59.53;101298.91;5029125;28;20037;-86
2023/09/12 03:31:51;;;;;;;0.20;0.20;;;;;;;17.81;59.24;101296.19;5029349;28;20037;-86
2023/09/12 03:34:16;;;;;;;0.10;0.10;;;;;;;17.68;58.72;101290.91;5029689;28;20035;-86
2023/09/12 03:36:42;;;;;;;0.20;0.20;;;;;;;17.61;59.52;101299.28;5012708;28;20033;-87
2023/09/12 03:39:08;;;;;;;0.20;0.20;;;;;;;17.56;60.72;101296.13;5029349;28;20038;-86
2023/09/12 03:41:34;;;;;;;0.20;0.20;;;;;;;17.52;60.06;101302.53;5024004;28;20046;-86
2023/09/12 03:44:00;;;;;;;0.20;0.20;;;;;;;17.30;61.41;101303.94;5028964;28;20137;-85
2023/09/12 03:46:25;;;;;;;0.10;0.10;;;;;;;17.46;61.77;101309.00;5045803;28;20061;-85
2023/09/12 03:48:51;;;;;;;0.20;0.20;;;;;;;18.30;60.07;101308.50;5029073;28;20030;-85
2023/09/12 03:51:16;;;;;;;0.20;0.20;;;;;;;19.22;56.31;101307.09;5029077;28;20502;-86
2023/09/12 03:53:42;;;;;;;0.10;0.10;;;;;;;19.53;54.75;101295.13;5029005;28;20036;-85
2023/09/12 03:56:10;;;;;;;0.10;0.10;;;;;;;20.21;52.97;101302.13;5012751;28;20072;-85
2023/09/12 03:58:35;;;;;;;0.10;0.10;;;;;;;19.71;52.33;101312.97;5028940;28;20038;-85
2023/09/12 04:01:00;;;;;;;0.20;0.20;;;;;;;19.03;54.39;101312.84;5028947;28;20029;-86
2023/09/12 04:03:26;;;;;;;0.20;0.20;;;;;;;19.29;54.19;101311.78;5028895;28;20107;-85
2023/09/12 04:05:51;;;;;;;0.10;0.10;;;;;;;19.41;54.92;101312.63;4994809;28;20030;-86
2023/09/12 04:08:17;;;;;;;0.15;0.15;;;;;;;19.59;53.77;101305.19;5007867;28;20029;-87
2023/09/12 04:10:43;;;;;;;0.10;0.10;;;;;;;19.85;53.84;101311.06;5008798;28;20487;-86
2023/09/12 04:13:08;;;;;;;0.20;0.20;;;;;;;20.10;52.84;101304.75;5004007;28;20485;-86
2023/09/12 04:15:34;;;;;;;0.20;0.20;;;;;;;19.45;53.30;101303.56;5031307;28;20095;-87
2023/09/12 04:17:59;;;;;;;0.20;0.20;;;;;;;18.71;53.47;101270.66;5032365;28;20026;-86
2023/09/12 04:20:25;;;;;;;0.20;0.20;;;;;;;18.43;55.70;101325.00;5033527;28;20029;-87
2023/09/12 04:22:51;;;;;;;0.20;0.20;;;;;;;17.97;56.07;101312.50;5033735;28;20025;-88
2023/09/12 04:25:16;;;;;;;0.10;0.10;;;;;;;18.26;57.14;101307.84;5014492;28;20113;-83
2023/09/12 04:27:42;;;;;;;0.10;0.10;;;;;;;18.28;54.98;101305.13;5015462;28;20056;-87
2023/09/12 04:30:08;;;;;;;0.20;0.20;;;;;;;18.00;57.23;101322.78;5033279;28;20048;-90
2023/09/12 04:32:34;;;;;;;0.10;0.10;;;;;;;17.57;57.28;101323.97;5012798;28;20022;-89
2023/09/12 04:34:59;;;;;;;0.20;0.20;;;;;;;17.37;57.96;101327.91;4996103;28;20065;-88
2023/09/12 04:37:25;;;;;;;0.10;0.10;;;;;;;17.20;59.55;101305.47;4996068;28;20109;-86
2023/09/12 04:39:50;;;;;;;0.20;0.20;;;;;;;17.05;60.08;101324.81;5013695;28;20503;-90
2023/09/12 04:42:16;;;;;;;0.10;0.10;;;;;;;16.99;61.26;101318.19;5020241;28;20107;-91
2023/09/12 04:44:41;;;;;;;0.20;0.20;;;;;;;17.04;60.38;101326.56;5001075;28;20080;-90
2023/09/12 04:47:07;;;;;;;0.20;0.20;;;;;;;16.94;59.93;101324.66;4997746;28;20507;-90
2023/09/12 04:49:33;;;;;;;0.10;0.10;;;;;;;16.97;60.29;101327.06;4996550;28;20037;-85
2023/09/12 04:51:58;;;;;;;0.10;0.10;;;;;;;17.06;60.50;101326.47;5030857;28;20038;-89
2023/09/12 04:54:24;;;;;;;0.10;0.10;;;;;;;17.07;61.18;101333.38;5011659;28;20029;-86
2023/09/12 04:56:49;;;;;;;0.10;0.10;;;;;;;16.99;62.21;101328.63;5033664;28;20498;-87
2023/09/12 04:59:15;;;;;;;0.15;0.15;;;;;;;17.05;60.57;101332.63;5028659;28;20057;-86
2023/09/12 05:01:40;;;;;;;0.17;0.17;;;;;;;16.99;60.68;101333.03;5015671;28;20025;-93
2023/09/12 05:04:06;;;;;;;0.17;0.17;;;;;;;16.83;61.29;101339.25;5032694;28;20033;-87
2023/09/12 05:06:31;;;;;;;0.17;0.17;;;;;;;16.63;62.49;101339.66;5015134;28;20484;-89
2023/09/12 05:08:56;;;;;;;0.10;0.10;;;;;;;16.48;62.96;101324.91;5029220;28;20052;-88
2023/09/12 05:11:23;;;;;;;0.20;0.20;;;;;;;16.71;63.32;101342.63;5047321;28;20095;-90
2023/09/12 05:13:49;;;;;;;0.10;0.10;;;;;;;16.82;63.44;101349.81;4997076;28;20518;-86
2023/09/12 05:16:14;;;;;;;0.20;0.20;;;;;;;16.85;63.57;101336.53;5017402;28;20093;-90
2023/09/12 05:18:40;;;;;;;0.10;0.10;;;;;;;16.97;62.96;101350.59;5031502;28;20037;-89
2023/09/12 05:21:05;;;;;;;0.20;0.20;;;;;;;17.04;62.25;101350.09;5026446;28;20025;-92
2023/09/12 05:23:31;;;;;;;0.20;0.20;;;;;;;17.15;62.43;101350.25;5023795;28;20044;-93
2023/09/12 05:25:56;;;;;;;0.20;0.20;;;;;;;17.22;61.97;101347.25;5014550;28;20025;-92
2023/09/12 05:28:21;;;;;;;0.10;0.10;;;;;;;17.78;62.97;101356.56;5033535;28;20087;-87
2023/09/12 05:30:47;;;;;;;0.20;0.20;;;;;;;18.63;59.40;101345.38;5048000;28;20029;-88
2023/09/12 05:33:12;;;;;;;0.20;0.20;;;;;;;18.92;58.28;101342.50;5047888;28;20025;-90
2023/09/12 05:35:38;;;;;;;0.20;0.20;;;;;;;19.24;54.82;101342.75;5026826;28;20025;-89
2023/09/12 05:38:03;;;;;;;0.10;0.10;;;;;;;18.87;56.19;101339.34;5015486;28;20036;-93
2023/09/12 05:40:31;;;;;;;0.20;0.20;;;;;;;18.69;57.71;101349.41;5017103;28;20032;-92
2023/09/12 05:42:57;;;;;;;0.20;0.20;;;;;;;18.39;57.15;101335.81;5021008;28;20045;-90
2023/09/12 05:45:23;;;;;;;0.20;0.20;;;;;;;18.34;57.76;101354.47;5015570;28;20026;-89
2023/09/12 05:47:50;;;;;;;0.10;0.10;;;;;;;18.37;58.22;101361.25;5033744;28;20025;-92
2023/09/12 05:50:16;;;;;;;0.17;0.17;;;;;;;18.35;57.76;101364.00;5026015;28;20033;-91
2023/09/12 05:52:42;;;;;;;0.10;0.10;;;;;;;18.32;58.12;101361.59;5028156;28;20501;-93
2023/09/12 05:55:08;;;;;;;0.20;0.20;;;;;;;18.19;59.06;101351.16;5027264;28;20099;-91
2023/09/12 05:57:34;;;;;;;0.10;0.10;;;;;;;18.30;59.70;101351.22;5028665;28;20030;-91
2023/09/12 05:59:59;;;;;;;0.10;0.10;;;;;;;18.92;57.89;101348.56;5004176;28;20498;-92
2023/09/12 06:02:27;;;;;;;0.20;0.20;;;;;;;19.24;57.53;101357.66;5038924;28;20037;-92
2023/09/12 06:04:52;;;;;;;0.20;0.20;;;;;;;19.65;55.95;101346.72;5033632;28;20034;-93
2023/09/12 06:07:17;;;;;;;0.20;0.20;;;;;;;19.88;56.45;101361.56;5010580;28;20091;-90
2023/09/12 06:09:43;;;;;;;0.20;0.20;;;;;;;20.45;54.35;101357.19;5031854;28;20033;-86
2023/09/12 06:12:11;;;;;;;0.10;0.10;;;;;;;20.33;53.80;101319.53;5000459;28;20033;-93
2023/09/12 06:14:37;;;;;;;0.10;0.10;;;;;;;20.84;53.43;101346.16;5024223;28;20060;-89
2023/09/12 06:17:02;;;;;;;0.10;0.10;;;;;;;20.83;53.71;101347.06;5005555;28;20084;-91
2023/09/12 06:19:28;;;;;;;0.10;0.10;;;;;;;20.69;54.05;101365.75;5030732;28;20049;-93
2023/09/12 06:21:55;;;;;;;0.20;0.20;;;;;;;21.08;53.59;101361.72;5015771;28;20030;-90
2023/09/12 06:24:21;;;;;;;0.20;0.20;;;;;;;21.19;53.87;101363.47;5031044;28;20067;-95
2023/09/12 06:26:46;;;;;;;0.20;0.20;;;;;;;21.20;54.07;101362.50;5029461;28;20026;-91
2023/09/12 06:29:13;;;;;;;0.20;0.20;;;;;;;21.20;53.19;101358.06;4997428;28;20407;-94
2023/09/12 06:31:39;;;;;;;0.20;0.20;;;;;;;21.48;53.43;101372.47;5021453;28;20021;-94
2023/09/12 06:34:04;;;;;;;0.10;0.10;;;;;;;21.82;52.28;101374.88;5007921;28;20137;-92
2023/09/12 06:36:30;;;;;;;0.10;0.10;;;;;;;21.91;52.10;101371.47;5039800;28;20034;-92
2023/09/12 06:38:56;;;;;;;0.10;0.10;;;;;;;21.63;51.78;101372.13;5014787;28;20037;-91
2023/09/12 06:41:22;;;;;;;0.20;0.20;;;;;;;21.25;53.03;101375.31;5005679;28;20049;-94
2023/09/12 06:43:47;;;;;;;0.10;0.10;;;;;;;20.95;53.60;101376.84;5035821;28;20660;-92
2023/09/12 06:46:13;;;;;;;0.20;0.20;;;;;;;20.72;54.46;101365.50;5017771;28;20033;-93
2023/09/12 06:48:38;;;;;;;0.10;0.10;;;;;;;20.95;54.10;101365.47;5032417;28;20510;-91
2023/09/12 06:51:08;;;;;;;0.20;0.20;;;;;;;20.99;54.25;101377.41;5002288;28;20037;-91
2023/09/12 06:53:33;;;;;;;0.20;0.20;;;;;;;21.35;54.31;101379.72;5043885;28;20078;-91
2023/09/12 06:55:59;;;;;;;0.20;0.20;;;;;;;21.51;54.90;101378.44;5015517;28;20036;-94
2023/09/12 06:58:25;;;;;;;0.20;0.20;;;;;;;21.55;52.56;101362.25;4996492;28;20053;-88
2023/09/12 07:00:50;;;;;;;0.20;0.20;;;;;;;21.53;52.82;101372.06;5012963;28;20450;-93
2023/09/12 07:03:16;;;;;;;0.20;0.20;;;;;;;21.57;53.62;101383.19;5015255;28;20083;-94
2023/09/12 07:05:42;;;;;;;0.20;0.20;;;;;;;21.45;53.50;101385.88;5032983;28;20034;-94
2023/09/12 07:08:08;;;;;;;0.10;0.10;;;;;;;21.57;53.24;101380.56;5020369;28;20041;-94
2023/09/12 07:10:34;;;;;;;0.20;0.20;;;;;;;21.55;52.84;101385.97;4999451;28;20033;-94
2023/09/12 07:12:59;;;;;;;0.20;0.20;;;;;;;21.66;54.93;101395.59;5011426;28;20030;-92
2023/09/12 07:15:40;;;;;;;0.20;0.20;;;;;;;21.95;53.82;101404.53;5008113;28;20060;-94
2023/09/12 07:18:06;;;;;;;0.20;0.20;;;;;;;22.04;54.25;101398.47;4984866;28;20064;-93
2023/09/12 07:20:35;;;;;;;0.20;0.20;;;;;;;22.01;54.13;101396.06;5014804;28;20033;-91
2023/09/12 07:23:00;;;;;;;0.20;0.20;;;;;;;22.16;53.82;101406.31;5031927;28;20464;-90
2023/09/12 07:25:26;;;;;;;0.10;0.10;;;;;;;22.18;53.69;101399.13;5016467;28;20068;-92
2023/09/12 07:27:51;;;;;;;0.20;0.20;;;;;;;22.12;53.51;101403.09;5046938;28;20100;-94
2023/09/12 07:30:23;;;;;;;0.20;0.20;;;;;;;22.14;53.26;101403.81;5017368;28;20037;-94
2023/09/12 07:32:48;;;;;;;0.20;0.20;;;;;;;22.26;54.08;101400.13;5019047;28;20122;-91
2023/09/12 07:35:13;;;;;;;0.20;0.20;;;;;;;22.33;54.08;101403.09;5013581;28;20037;-90
2023/09/12 07:37:39;;;;;;;0.20;0.20;;;;;;;22.50;52.76;101398.97;5013204;28;20026;-93
2023/09/12 07:40:09;;;;;;;0.20;0.20;;;;;;;22.61;52.36;101405.00;5012907;28;20030;-90
2023/09/12 07:42:35;;;;;;;0.13;0.13;;;;;;;22.56;53.04;101404.56;5016756;28;20496;-92
2023/09/12 07:45:03;;;;;;;0.20;0.20;;;;;;;22.74;52.51;101399.47;5028567;28;20036;-92
2023/09/12 07:47:28;;;;;;;0.20;0.20;;;;;;;22.87;51.20;101402.72;5022720;28;20067;-88
2023/09/12 07:49:54;;;;;;;0.20;0.20;;;;;;;22.93;50.86;101400.53;5017592;28;20391;-92
2023/09/12 07:52:19;;;;;;;0.20;0.20;;;;;;;23.30;52.15;101403.31;5024806;28;20033;-94
2023/09/12 07:54:44;;;;;;;0.17;0.17;;;;;;;23.38;49.61;101383.16;5026301;28;20040;-88
2023/09/12 07:57:10;;;;;;;0.20;0.20;;;;;;;23.55;48.76;101396.66;5005381;28;20473;-90
2023/09/12 07:59:35;;;;;;;0.20;0.20;;;;;;;23.43;48.73;101395.97;4999644;28;20167;-88
2023/09/12 08:02:01;;;;;;;0.20;0.20;;;;;;;23.52;48.88;101391.66;5029388;28;20458;-92
2023/09/12 08:04:26;;;;;;;0.20;0.20;;;;;;;23.67;48.04;101391.09;5018713;28;20029;-91
2023/09/12 08:06:52;;;;;;;0.20;0.20;;;;;;;23.84;48.08;101391.34;5023701;28;20038;-92
2023/09/12 08:09:17;;;;;;;0.20;0.20;;;;;;;23.86;48.87;101384.09;5015226;28;20036;-92
2023/09/12 08:11:43;;;;;;;0.20;0.20;;;;;;;24.03;47.93;101383.38;5030201;28;20037;-93
2023/09/12 08:14:08;;;;;;;0.20;0.20;;;;;;;24.09;45.93;101385.47;5012644;28;20026;-89
2023/09/12 08:16:34;;;;;;;0.20;0.20;;;;;;;24.15;48.34;101390.16;5011201;28;20029;-92
2023/09/12 08:18:59;;;;;;;0.20;0.20;;;;;;;24.37;48.19;101390.78;5020651;28;20092;-87
2023/09/12 08:21:24;;;;;;;0.13;0.13;;;;;;;24.45;45.33;101375.03;5032989;28;20040;-88
2023/09/12 08:23:50;;;;;;;0.10;0.10;;;;;;;24.63;44.19;101381.19;5034167;28;20048;-91
2023/09/12 08:26:16;;;;;;;0.10;0.10;;;;;;;24.70;45.12;101379.63;5024719;28;20037;-88
2023/09/12 08:28:41;;;;;;;0.20;0.20;;;;;;;24.73;44.74;101359.97;5015654;28;20022;-87
2023/09/12 08:31:07;;;;;;;0.20;0.20;;;;;;;24.93;46.03;101368.59;5026101;28;20111;-86
2023/09/12 08:33:33;;;;;;;0.10;0.10;;;;;;;24.93;44.87;101363.31;5032611;28;20036;-90
2023/09/12 08:35:58;;;;;;;0.20;0.20;;;;;;;25.11;44.25;101372.97;5018210;28;20033;-92
2023/09/12 08:38:24;;;;;;;0.20;0.20;;;;;;;25.28;44.24;101360.69;5039641;28;20021;-92
2023/09/12 08:40:52;;;;;;;0.20;0.20;;;;;;;25.46;44.48;101366.78;5012425;28;20502;-92
2023/09/12 08:43:18;;;;;;;0.20;0.20;;;;;;;25.57;43.44;101372.84;5040654;28;20079;-94
2023/09/12 08:45:44;;;;;;;0.20;0.20;;;;;;;25.40;44.16;101334.81;5021196;28;20112;-86
2023/09/12 08:48:10;;;;;;;0.20;0.20;;;;;;;25.84;43.78;101369.22;5032471;28;20027;-93
2023/09/12 08:50:36;;;;;;;0.20;0.20;;;;;;;25.99;43.22;101368.50;5014447;28;20032;-88
2023/09/12 08:53:01;;;;;;;0.20;0.20;;;;;;;26.14;42.90;101371.38;5009831;28;20026;-91
2023/09/12 08:55:27;;;;;;;0.20;0.20;;;;;;;26.18;43.01;101366.63;5014832;28;20030;-91
2023/09/12 08:57:55;;;;;;;0.20;0.20;;;;;;;26.23;42.67;101359.00;5028267;28;20377;-92
2023/09/12 09:00:21;;;;;;;0.20;0.20;;;;;;;26.35;43.30;101373.66;5018181;28;20029;-94
2023/09/12 09:02:46;;;;;;;0.20;0.20;;;;;;;26.26;42.87;101343.63;5017029;28;20033;-89
2023/09/12 09:05:13;;;;;;;0.20;0.20;;;;;;;26.54;42.43;101372.56;5011555;28;20028;-88
2023/09/12 09:07:39;;;;;;;0.20;0.20;;;;;;;26.68;41.65;101366.66;5024334;28;20487;-92
2023/09/12 09:10:06;;;;;;;0.20;0.20;;;;;;;26.59;41.84;101352.53;5015594;28;20030;-86
2023/09/12 09:12:32;;;;;;;0.20;0.20;;;;;;;26.78;41.84;101361.22;5044476;28;20033;-86
2023/09/12 09:14:58;;;;;;;0.20;0.20;;;;;;;26.85;40.80;101357.75;5038673;28;20435;-86
2023/09/12 09:17:23;;;;;;;0.20;0.20;;;;;;;26.95;40.93;101357.59;5014530;28;20730;-92
2023/09/12 09:19:49;;;;;;;0.20;0.20;;;;;;;27.07;39.59;101353.66;5015110;28;20743;-91
2023/09/12 09:22:14;;;;;;;0.20;0.20;;;;;;;27.15;39.72;101356.31;4999745;28;20514;-90
2023/09/12 09:24:40;;;;;;;0.20;0.20;;;;;;;27.17;39.12;101348.19;5031181;28;20032;-87
2023/09/12 09:27:05;;;;;;;0.20;0.20;;;;;;;27.32;38.85;101350.97;5015303;28;20048;-93
2023/09/12 09:29:45;;;;;;;0.20;0.20;;;;;;;27.44;38.51;101349.66;5029683;28;20026;-93
2023/09/12 09:32:10;;;;;;;0.20;0.20;;;;;;;27.44;37.82;101347.84;5009389;28;20034;-89
2023/09/12 09:34:36;;;;;;;0.20;0.20;;;;;;;27.43;38.63;101330.25;5015602;28;20029;-91
2023/09/12 09:37:02;;;;;;;0.20;0.20;;;;;;;27.66;38.67;101341.03;5012994;28;20046;-88
2023/09/12 09:39:31;;;;;;;0.20;0.20;;;;;;;27.86;37.07;101343.31;5023548;28;20022;-93
2023/09/12 09:41:57;;;;;;;0.20;0.20;;;;;;;27.75;36.98;101315.25;5009211;28;20025;-93
2023/09/12 09:44:26;;;;;;;0.20;0.20;;;;;;;28.08;36.93;101331.91;4992462;28;20132;-88
2023/09/12 09:47:02;;;;;;;0.20;0.20;;;;;;;28.26;35.73;101329.84;5035163;28;20033;-91
2023/09/12 09:49:27;;;;;;;0.20;0.20;;;;;;;28.23;34.17;101324.88;5032470;28;20025;-91
2023/09/12 09:51:53;;;;;;;0.20;0.20;;;;;;;28.56;33.35;101330.06;5040104;28;20541;-92
2023/09/12 09:54:18;;;;;;;0.20;0.20;;;;;;;28.72;32.68;101321.16;5018162;28;20029;-91
2023/09/12 09:56:47;;;;;;;0.20;0.20;;;;;;;28.63;30.27;101293.75;5016254;28;20068;-92
2023/09/12 09:59:23;;;;;;;0.20;0.20;;;;;;;28.95;30.96;101310.50;5031365;28;20030;-93
2023/09/12 10:01:51;;;;;;;0.20;0.20;;;;;;;29.06;30.92;101312.75;5011381;28;20038;-95
2023/09/12 10:04:16;;;;;;;0.20;0.20;;;;;;;29.26;31.09;101321.06;5008673;28;20129;-92
2023/09/12 10:06:46;;;;;;;0.20;0.20;;;;;;;29.26;29.55;101300.56;5014467;28;20487;-91
2023/09/12 10:09:13;;;;;;;0.20;0.20;;;;;;;29.35;28.92;101309.34;5013388;28;20408;-90
2023/09/12 10:11:39;;;;;;;0.20;0.20;;;;;;;29.50;29.59;101296.03;5011853;28;20053;-90
2023/09/12 10:17:09;;;;;;;0.20;0.20;;;;;;;29.79;28.97;101304.03;5038270;28;20481;-88
2023/09/12 10:19:46;;;;;;;0.20;0.20;;;;;;;29.97;29.10;101307.16;5044457;28;20041;-88
2023/09/12 10:22:22;;;;;;;0.20;0.20;;;;;;;29.97;27.86;101283.16;5022896;28;20043;-93
2023/09/12 10:24:47;;;;;;;0.20;0.20;;;;;;;30.16;27.97;101296.97;5014584;28;20398;-89
2023/09/12 10:27:13;;;;;;;0.20;0.20;;;;;;;30.39;28.22;101288.81;5029291;28;20037;-87
2023/09/12 10:29:38;;;;;;;0.20;0.20;;;;;;;30.48;28.38;101285.84;5012091;28;20033;-92
2023/09/12 10:32:05;;;;;;;0.20;0.20;;;;;;;30.63;27.96;101282.28;5016042;28;20037;-87
2023/09/12 10:34:32;;;;;;;0.25;0.25;;;;;;;30.69;27.84;101270.88;5030425;28;20025;-89
2023/09/12 10:36:59;;;;;;;0.20;0.20;;;;;;;30.77;27.38;101271.56;5013652;28;20033;-86
2023/09/12 10:39:25;;;;;;;0.20;0.20;;;;;;;30.94;27.67;101280.13;5029290;28;20565;-92
2023/09/12 10:41:50;;;;;;;0.20;0.20;;;;;;;31.00;27.64;101263.34;5023828;28;20029;-93
2023/09/12 10:44:16;;;;;;;0.20;0.20;;;;;;;31.09;27.53;101267.53;4985186;28;20052;-94
2023/09/12 10:46:42;;;;;;;0.20;0.20;;;;;;;31.12;26.48;101256.44;5016354;28;20116;-86
2023/09/12 10:49:08;;;;;;;0.20;0.20;;;;;;;31.25;27.05;101265.59;5042481;28;20367;-84
2023/09/12 10:51:38;;;;;;;0.30;0.30;;;;;;;31.24;26.21;101258.59;5029234;28;20411;-89
2023/09/12 10:54:04;;;;;;;0.20;0.20;;;;;;;31.35;26.11;101256.19;5000624;28;20029;-86
2023/09/12 10:56:32;;;;;;;0.20;0.20;;;;;;;31.63;25.88;101258.81;5010229;28;20068;-87
2023/09/12 10:59:06;;;;;;;0.20;0.20;;;;;;;31.81;26.43;101260.19;5015556;28;20085;-88
2023/09/12 11:01:35;;;;;;;0.22;0.22;;;;;;;31.92;25.93;101251.59;5029766;28;20074;-92
2023/09/12 11:04:19;;;;;;;0.30;0.30;;;;;;;32.03;25.84;101263.56;5013826;28;20037;-87
2023/09/12 11:06:45;;;;;;;0.25;0.25;;;;;;;32.09;25.57;101268.13;5031664;28;20117;-95
2023/09/12 11:09:13;;;;;;;0.20;0.20;;;;;;;32.21;25.04;101255.78;5012394;28;20033;-91
2023/09/12 11:11:39;;;;;;;0.20;0.20;;;;;;;32.31;24.90;101256.25;5030371;28;20541;-90
2023/09/12 11:14:05;;;;;;;0.20;0.20;;;;;;;32.26;24.64;101245.31;5020064;28;20075;-90
2023/09/12 11:16:31;;;;;;;0.20;0.20;;;;;;;32.40;24.65;101251.53;5044998;28;20024;-94
2023/09/12 11:19:16;;;;;;;0.20;0.20;;;;;;;32.53;24.48;101256.91;5014261;28;20064;-91
2023/09/12 11:21:59;;;;;;;0.20;0.20;;;;;;;32.61;24.51;101251.38;5031990;28;20022;-88